createdAt,value
2022-10-12T00:00:11.646Z,11.67
2022-10-12T00:03:03.080Z,12.20
2022-10-12T00:06:08.120Z,11.83
2022-10-12T00:08:55.157Z,11.90
2022-10-12T00:11:42.101Z,12.13
2022-10-12T00:14:29.035Z,13.30
2022-10-12T00:17:16.691Z,13.33
2022-10-12T00:20:05.348Z,12.20
2022-10-12T00:22:52.392Z,11.47
2022-10-12T00:25:40.488Z,11.50
2022-10-12T00:28:27.490Z,11.00
2022-10-12T00:31:19.727Z,12.30
2022-10-12T00:34:06.786Z,11.77
2022-10-12T00:36:55.608Z,12.93
2022-10-12T00:39:42.538Z,13.17
2022-10-12T00:42:29.591Z,12.27
2022-10-12T00:45:16.907Z,12.47
2022-10-12T00:48:04.075Z,12.23
2022-10-12T00:50:51.880Z,11.53
2022-10-12T00:53:45.174Z,12.90
2022-10-12T00:56:36.296Z,12.50
2022-10-12T00:59:28.517Z,11.80
2022-10-12T01:02:16.107Z,12.20
2022-10-12T01:05:05.113Z,12.13
2022-10-12T01:07:52.096Z,12.10
2022-10-12T01:10:39.151Z,12.67
2022-10-12T01:13:26.656Z,12.93
2022-10-12T01:16:34.763Z,12.43
2022-10-12T01:19:24.604Z,13.40
2022-10-12T01:22:16.857Z,11.90
2022-10-12T01:25:44.063Z,12.40
2022-10-12T01:28:52.454Z,12.73
2022-10-12T01:32:01.393Z,11.50
2022-10-12T01:35:00.343Z,11.77
2022-10-12T01:38:16.953Z,12.17
2022-10-12T01:41:31.870Z,11.73
2022-10-12T01:44:23.916Z,11.97
2022-10-12T01:47:10.916Z,12.10
2022-10-12T01:49:58.614Z,11.93
2022-10-12T01:52:57.008Z,10.70
2022-10-12T01:56:05.525Z,9.77
2022-10-12T01:59:24.732Z,9.80
2022-10-12T02:02:18.195Z,10.73
2022-10-12T02:05:44.085Z,10.70
2022-10-12T02:08:54.203Z,11.07
2022-10-12T02:11:44.705Z,8.83
2022-10-12T02:14:38.370Z,8.57
2022-10-12T02:17:25.833Z,9.70
2022-10-12T02:20:16.891Z,8.33
2022-10-12T02:23:03.879Z,10.83
2022-10-12T02:25:53.474Z,9.60
2022-10-12T02:28:43.771Z,8.77
2022-10-12T02:31:46.998Z,8.10
2022-10-12T02:34:46.430Z,7.57
2022-10-12T02:37:46.563Z,8.53
2022-10-12T02:40:44.391Z,9.33
2022-10-12T02:43:42.782Z,8.17
2022-10-12T02:46:31.779Z,7.90
2022-10-12T02:49:20.038Z,9.07
2022-10-12T02:52:07.983Z,8.83
2022-10-12T02:54:54.909Z,9.43
2022-10-12T02:57:42.158Z,9.33
2022-10-12T03:00:29.362Z,10.17
2022-10-12T03:03:16.290Z,9.20
2022-10-12T03:06:03.759Z,10.00
2022-10-12T03:08:50.749Z,9.40
2022-10-12T03:11:37.835Z,9.53
2022-10-12T03:14:26.827Z,9.93
2022-10-12T03:17:13.757Z,10.37
2022-10-12T03:20:00.674Z,9.90
2022-10-12T03:22:47.614Z,9.60
2022-10-12T03:25:34.583Z,9.13
2022-10-12T03:28:21.631Z,9.13
2022-10-12T03:31:08.663Z,8.20
2022-10-12T03:33:55.577Z,9.23
2022-10-12T03:36:42.543Z,9.77
2022-10-12T03:39:29.478Z,10.07
2022-10-12T03:42:16.461Z,9.47
2022-10-12T03:45:03.808Z,9.20
2022-10-12T03:47:50.808Z,12.00
2022-10-12T03:50:37.801Z,10.73
2022-10-12T03:53:24.710Z,9.67
2022-10-12T03:56:12.494Z,9.83
2022-10-12T03:58:59.607Z,9.13
2022-10-12T04:01:46.723Z,9.77
2022-10-12T04:04:33.739Z,9.30
2022-10-12T04:07:20.658Z,10.17
2022-10-12T04:10:08.372Z,10.47
2022-10-12T04:12:56.305Z,10.23
2022-10-12T04:15:43.235Z,9.33
2022-10-12T04:18:30.402Z,10.63
2022-10-12T04:21:24.519Z,9.00
2022-10-12T04:24:11.641Z,9.97
2022-10-12T04:26:58.545Z,10.47
2022-10-12T04:29:45.528Z,9.40
2022-10-12T04:32:32.504Z,10.53
2022-10-12T04:35:19.442Z,11.27
2022-10-12T04:38:06.451Z,10.87
2022-10-12T04:40:53.570Z,14.57
2022-10-12T04:43:40.510Z,12.73
2022-10-12T04:46:28.189Z,12.50
2022-10-12T04:49:16.147Z,12.47
2022-10-12T04:52:03.111Z,12.23
2022-10-12T04:54:50.030Z,11.43
2022-10-12T04:57:37.316Z,12.03
2022-10-12T05:00:24.461Z,10.97
2022-10-12T05:03:11.405Z,11.00
2022-10-12T05:05:58.702Z,10.43
2022-10-12T05:08:45.654Z,11.13
2022-10-12T05:11:32.683Z,10.60
2022-10-12T05:14:19.646Z,12.20
2022-10-12T05:17:06.586Z,10.23
2022-10-12T05:19:53.502Z,9.63
2022-10-12T05:22:40.549Z,11.37
2022-10-12T05:25:29.574Z,11.60
2022-10-12T05:28:16.619Z,12.83
2022-10-12T05:31:03.615Z,10.83
2022-10-12T05:33:50.571Z,9.83
2022-10-12T05:36:37.578Z,10.40
2022-10-12T05:39:24.822Z,10.03
2022-10-12T05:42:11.754Z,11.10
2022-10-12T05:44:58.690Z,14.37
2022-10-12T05:47:45.623Z,14.67
2022-10-12T05:50:32.577Z,11.00
2022-10-12T05:53:19.686Z,10.00
2022-10-12T05:56:06.762Z,12.63
2022-10-12T05:58:54.232Z,10.50
2022-10-12T06:01:41.448Z,10.10
2022-10-12T06:04:28.425Z,9.03
2022-10-12T06:07:15.733Z,10.37
2022-10-12T06:10:03.214Z,8.97
2022-10-12T06:12:50.578Z,9.13
2022-10-12T06:15:37.880Z,9.17
2022-10-12T06:18:24.905Z,8.37
2022-10-12T06:21:32.546Z,8.90
2022-10-12T06:24:18.806Z,8.53
2022-10-12T06:27:05.917Z,9.53
2022-10-12T06:29:52.897Z,11.00
2022-10-12T06:32:40.367Z,8.90
2022-10-12T06:35:27.580Z,9.10
2022-10-12T06:38:15.507Z,9.43
2022-10-12T06:41:02.469Z,9.20
2022-10-12T06:43:49.398Z,9.83
2022-10-12T06:46:36.383Z,10.10
2022-10-12T06:49:23.345Z,10.33
2022-10-12T06:52:10.276Z,10.23
2022-10-12T06:54:57.210Z,10.10
2022-10-12T06:57:44.437Z,9.70
2022-10-12T07:00:31.379Z,11.37
2022-10-12T07:03:18.317Z,10.50
2022-10-12T07:06:07.474Z,9.97
2022-10-12T07:08:55.102Z,10.63
2022-10-12T07:11:42.295Z,10.67
2022-10-12T07:14:29.206Z,11.93
2022-10-12T07:17:16.300Z,11.60
2022-10-12T07:20:03.751Z,13.77
2022-10-12T07:22:52.686Z,11.47
2022-10-12T07:25:39.617Z,11.67
2022-10-12T07:28:27.316Z,11.77
2022-10-12T07:31:14.489Z,11.47
2022-10-12T07:34:01.590Z,12.53
2022-10-12T07:36:59.251Z,11.67
2022-10-12T07:39:47.082Z,11.67
2022-10-12T07:42:34.122Z,11.53
2022-10-12T07:45:21.656Z,11.17
2022-10-12T07:48:08.571Z,9.67
2022-10-12T07:50:55.625Z,10.40
2022-10-12T07:53:42.589Z,11.17
2022-10-12T07:56:29.654Z,11.03
2022-10-12T07:59:16.579Z,11.17
2022-10-12T08:02:03.639Z,10.90
2022-10-12T08:04:51.839Z,9.03
2022-10-12T08:07:39.137Z,9.70
2022-10-12T08:10:26.581Z,8.90
2022-10-12T08:13:13.732Z,9.43
2022-10-12T08:16:02.339Z,8.90
2022-10-12T08:18:49.458Z,12.13
2022-10-12T08:21:36.470Z,9.70
2022-10-12T08:24:23.426Z,11.10
2022-10-12T08:27:10.572Z,9.67
2022-10-12T08:29:57.517Z,9.37
2022-10-12T08:32:44.449Z,9.83
2022-10-12T08:35:31.375Z,11.53
2022-10-12T08:38:18.374Z,9.60
2022-10-12T08:41:10.502Z,11.20
2022-10-12T08:44:03.120Z,9.37
2022-10-12T08:46:55.215Z,9.50
2022-10-12T08:49:49.436Z,11.73
2022-10-12T08:52:46.477Z,9.40
2022-10-12T08:55:39.497Z,9.17
2022-10-12T08:58:35.590Z,9.23
2022-10-12T09:01:37.110Z,9.37
2022-10-12T09:04:53.554Z,9.70
2022-10-12T09:08:25.389Z,10.03
2022-10-12T09:11:54.890Z,10.13
2022-10-12T09:14:43.410Z,8.70
2022-10-12T09:17:38.740Z,8.97
2022-10-12T09:20:31.295Z,9.90
2022-10-12T09:23:25.642Z,9.33
2022-10-12T09:26:34.804Z,9.37
2022-10-12T09:29:28.469Z,9.50
2022-10-12T09:32:35.215Z,9.03
2022-10-12T09:35:22.256Z,9.57
2022-10-12T09:38:10.266Z,10.53
2022-10-12T09:40:57.185Z,10.50
2022-10-12T09:43:44.646Z,11.10
2022-10-12T09:46:42.929Z,10.13
2022-10-12T09:49:44.049Z,10.90
2022-10-12T09:52:37.054Z,9.50
2022-10-12T09:58:21.434Z,9.87
2022-10-12T10:01:16.545Z,9.53
2022-10-12T10:04:26.660Z,11.00
2022-10-12T10:07:24.604Z,9.83
2022-10-12T10:10:17.281Z,10.33
2022-10-12T10:13:06.237Z,10.73
2022-10-12T10:16:04.887Z,10.07
2022-10-12T10:18:54.789Z,10.40
2022-10-12T10:21:41.814Z,9.67
2022-10-12T10:24:31.913Z,10.50
2022-10-12T10:27:33.035Z,10.10
2022-10-12T10:30:29.765Z,9.80
2022-10-12T10:33:19.661Z,10.07
2022-10-12T10:36:22.323Z,9.67
2022-10-12T10:39:21.785Z,9.00
2022-10-12T10:42:10.784Z,9.07
2022-10-12T10:45:08.757Z,10.03
2022-10-12T10:48:01.369Z,7.40
2022-10-12T10:51:14.447Z,7.67
2022-10-12T10:54:14.392Z,9.10
2022-10-12T10:57:05.962Z,8.37
2022-10-12T11:00:25.996Z,8.50
2022-10-12T11:03:18.255Z,8.23
2022-10-12T11:06:20.571Z,8.20
2022-10-12T11:09:17.264Z,8.03
2022-10-12T11:12:14.129Z,10.20
2022-10-12T11:15:16.783Z,8.67
2022-10-12T11:18:25.684Z,9.23
2022-10-12T11:21:17.582Z,9.20
2022-10-12T11:24:26.643Z,9.60
2022-10-12T11:27:25.654Z,9.43
2022-10-12T11:30:17.590Z,8.87
2022-10-12T11:33:15.457Z,10.20
2022-10-12T11:36:04.187Z,8.53
2022-10-12T11:39:15.539Z,8.80
2022-10-12T11:42:21.489Z,8.03
2022-10-12T11:45:27.298Z,8.40
2022-10-12T11:48:22.609Z,9.93
2022-10-12T11:51:13.620Z,9.33
2022-10-12T11:54:29.502Z,8.80
2022-10-12T11:57:26.245Z,12.43
2022-10-12T12:00:22.631Z,9.27
2022-10-12T12:03:25.359Z,8.67
2022-10-12T12:06:30.642Z,8.70
2022-10-12T12:09:36.725Z,8.43
2022-10-12T12:12:26.525Z,8.40
2022-10-12T12:15:22.284Z,8.87
2022-10-12T12:18:18.602Z,7.77
2022-10-12T12:21:07.785Z,9.13
2022-10-12T12:23:55.856Z,9.40
2022-10-12T12:26:47.554Z,6.07
2022-10-12T12:29:34.563Z,7.47
2022-10-12T12:32:21.613Z,6.47
2022-10-12T12:35:29.470Z,7.63
2022-10-12T12:38:30.426Z,5.40
2022-10-12T12:41:19.711Z,6.50
2022-10-12T12:44:37.932Z,6.90
2022-10-12T12:47:46.850Z,7.17
2022-10-12T12:50:39.721Z,7.97
2022-10-12T12:53:28.317Z,6.20
2022-10-12T12:56:32.059Z,5.97
2022-10-12T12:59:38.951Z,5.70
2022-10-12T13:02:34.916Z,6.20
2022-10-12T13:05:39.218Z,5.97
2022-10-12T13:08:51.391Z,6.17
2022-10-12T13:12:19.496Z,5.80
2022-10-12T13:15:24.055Z,8.33
2022-10-12T13:18:48.060Z,6.07
2022-10-12T13:21:41.763Z,5.83
2022-10-12T13:24:34.358Z,5.70
2022-10-12T13:27:30.766Z,6.80
2022-10-12T13:30:20.964Z,8.13
2022-10-12T13:33:11.325Z,5.73
2022-10-12T13:36:08.278Z,5.83
2022-10-12T13:39:15.416Z,5.80
2022-10-12T13:42:02.497Z,5.60
2022-10-12T13:44:49.747Z,6.63
2022-10-12T13:47:42.328Z,6.37
2022-10-12T13:50:29.884Z,5.60
2022-10-12T13:53:16.988Z,5.90
2022-10-12T13:56:16.271Z,6.37
2022-10-12T13:59:07.064Z,6.07
2022-10-12T14:02:00.893Z,5.93
2022-10-12T14:04:47.960Z,5.17
2022-10-12T14:07:39.382Z,5.03
2022-10-12T14:10:31.875Z,5.33
2022-10-12T14:13:27.639Z,6.10
2022-10-12T14:16:14.747Z,5.83
2022-10-12T14:19:52.909Z,5.50
2022-10-12T14:22:39.925Z,4.70
2022-10-12T14:25:29.720Z,5.43
2022-10-12T14:28:35.235Z,4.50
2022-10-12T14:31:49.582Z,4.33
2022-10-12T14:34:36.716Z,5.10
2022-10-12T14:37:26.735Z,5.37
2022-10-12T14:40:30.609Z,6.43
2022-10-12T14:43:17.543Z,9.40
2022-10-12T14:46:06.298Z,6.93
2022-10-12T14:48:53.294Z,10.53
2022-10-12T14:51:40.282Z,9.70
2022-10-12T14:54:27.441Z,7.33
2022-10-12T14:57:16.719Z,7.67
2022-10-12T15:00:04.026Z,5.83
2022-10-12T15:02:51.724Z,6.90
2022-10-12T15:05:38.648Z,8.13
2022-10-12T15:08:25.608Z,7.73
2022-10-12T15:11:13.589Z,6.80
2022-10-12T15:14:00.498Z,6.87
2022-10-12T15:16:47.507Z,6.83
2022-10-12T15:19:34.461Z,6.77
2022-10-12T15:22:26.278Z,7.33
2022-10-12T15:25:49.612Z,8.67
2022-10-12T15:28:36.614Z,7.53
2022-10-12T15:31:23.568Z,6.80
2022-10-12T15:34:14.810Z,6.87
2022-10-12T15:37:05.251Z,5.73
2022-10-12T15:39:54.983Z,6.10
2022-10-12T15:42:42.511Z,4.93
2022-10-12T15:45:34.965Z,5.83
2022-10-12T15:48:21.966Z,5.97
2022-10-12T15:51:16.735Z,6.70
2022-10-12T15:54:03.808Z,8.10
2022-10-12T15:56:51.293Z,8.10
2022-10-12T15:59:38.263Z,9.13
2022-10-12T16:02:25.347Z,13.47
2022-10-12T16:05:22.666Z,11.73
2022-10-12T16:08:09.779Z,8.77
2022-10-12T16:10:57.241Z,9.40
2022-10-12T16:13:50.050Z,8.50
2022-10-12T16:16:40.898Z,8.80
2022-10-12T16:19:27.858Z,11.17
2022-10-12T16:22:14.806Z,10.77
2022-10-12T16:25:03.289Z,10.53
2022-10-12T16:27:52.188Z,10.37
2022-10-12T16:30:41.178Z,12.40
2022-10-12T16:33:28.165Z,11.53
2022-10-12T16:36:16.259Z,9.90
2022-10-12T16:39:03.306Z,10.70
2022-10-12T16:41:50.259Z,12.87
2022-10-12T16:44:37.238Z,10.73
2022-10-12T16:47:25.485Z,12.90
2022-10-12T16:50:12.813Z,11.33
2022-10-12T16:53:00.143Z,10.80
2022-10-12T16:55:47.281Z,12.47
2022-10-12T16:58:34.223Z,11.17
2022-10-12T17:01:21.197Z,11.07
2022-10-12T17:04:10.802Z,10.03
2022-10-12T17:06:57.741Z,10.40
2022-10-12T17:09:45.821Z,11.50
2022-10-12T17:12:34.820Z,9.93
2022-10-12T17:15:21.746Z,11.63
2022-10-12T17:18:09.357Z,10.80
2022-10-12T17:20:59.631Z,11.67
2022-10-12T17:23:46.635Z,10.47
2022-10-12T17:26:37.234Z,13.23
2022-10-12T17:29:28.622Z,12.03
2022-10-12T17:32:15.833Z,11.67
2022-10-12T17:35:04.044Z,11.17
2022-10-12T17:37:50.982Z,10.93
2022-10-12T17:40:39.307Z,11.53
2022-10-12T17:43:26.309Z,10.77
2022-10-12T17:46:13.271Z,12.87
2022-10-12T17:49:00.193Z,10.97
2022-10-12T17:51:48.200Z,11.03
2022-10-12T17:54:35.143Z,14.13
2022-10-12T17:57:22.166Z,13.47
2022-10-12T18:00:09.882Z,14.20
2022-10-12T18:02:58.927Z,12.43
2022-10-12T18:05:46.103Z,14.67
2022-10-12T18:08:33.091Z,13.90
2022-10-12T18:11:21.177Z,13.17
2022-10-12T18:14:10.211Z,12.60
2022-10-12T18:16:58.692Z,13.37
2022-10-12T18:19:47.076Z,11.70
2022-10-12T18:22:34.049Z,11.03
2022-10-12T18:25:20.992Z,11.23
2022-10-12T18:28:11.295Z,12.60
2022-10-12T18:30:58.810Z,10.73
2022-10-12T18:33:45.978Z,12.40
2022-10-12T18:36:33.243Z,10.50
2022-10-12T18:39:20.473Z,11.03
2022-10-12T18:42:07.583Z,10.13
2022-10-12T18:44:54.502Z,11.23
2022-10-12T18:47:41.521Z,11.00
2022-10-12T18:50:28.527Z,10.43
2022-10-12T18:53:15.603Z,11.83
2022-10-12T18:56:03.972Z,11.87
2022-10-12T18:58:51.264Z,12.30
2022-10-12T19:01:38.386Z,12.57
2022-10-12T19:04:25.855Z,11.17
2022-10-12T19:07:13.590Z,12.03
2022-10-12T19:10:01.418Z,11.47
2022-10-12T19:12:48.378Z,9.23
2022-10-12T19:15:38.512Z,9.93
2022-10-12T19:18:25.641Z,10.93
2022-10-12T19:21:15.905Z,10.50
2022-10-12T19:24:04.512Z,10.37
2022-10-12T19:26:51.900Z,10.27
2022-10-12T19:29:43.519Z,11.70
2022-10-12T19:32:33.263Z,10.43
2022-10-12T19:35:20.556Z,11.70
2022-10-12T19:38:07.559Z,11.37
2022-10-12T19:40:54.598Z,11.87
2022-10-12T19:43:43.101Z,12.53
2022-10-12T19:46:30.578Z,11.80
2022-10-12T19:49:18.515Z,12.43
2022-10-12T19:52:05.525Z,13.47
2022-10-12T19:54:52.467Z,13.17
2022-10-12T19:57:39.394Z,16.40
2022-10-12T20:00:26.588Z,13.93
2022-10-12T20:03:13.592Z,10.60
2022-10-12T20:06:01.267Z,9.57
2022-10-12T20:08:49.110Z,10.87
2022-10-12T20:11:38.219Z,11.87
2022-10-12T20:14:25.789Z,11.67
2022-10-12T20:17:12.805Z,14.13
2022-10-12T20:19:59.718Z,13.33
2022-10-12T20:22:46.660Z,13.30
2022-10-12T20:25:33.600Z,13.97
2022-10-12T20:28:21.884Z,12.73
2022-10-12T20:31:09.420Z,11.67
2022-10-12T20:33:57.768Z,11.03
2022-10-12T20:36:44.771Z,12.20
2022-10-12T20:39:33.561Z,11.87
2022-10-12T20:42:22.160Z,10.87
2022-10-12T20:45:10.487Z,10.90
2022-10-12T20:47:57.434Z,12.90
2022-10-12T20:50:44.446Z,9.67
2022-10-12T20:53:31.553Z,8.43
2022-10-12T20:56:18.744Z,10.67
2022-10-12T20:59:05.664Z,10.30
2022-10-12T21:01:52.621Z,9.23
2022-10-12T21:04:39.588Z,10.17
2022-10-12T21:07:26.908Z,9.90
2022-10-12T21:10:13.939Z,10.80
2022-10-12T21:13:00.856Z,11.23
2022-10-12T21:15:52.794Z,11.93
2022-10-12T21:18:41.219Z,12.83
2022-10-12T21:21:28.584Z,12.40
2022-10-12T21:24:16.160Z,11.20
2022-10-12T21:27:04.654Z,9.20
2022-10-12T21:29:51.649Z,10.40
2022-10-12T21:32:38.575Z,10.00
2022-10-12T21:35:25.566Z,10.67
2022-10-12T21:38:12.643Z,10.90
2022-10-12T21:40:59.607Z,10.90
2022-10-12T21:43:48.923Z,11.70
2022-10-12T21:46:36.272Z,9.77
2022-10-12T21:49:23.547Z,10.53
2022-10-12T21:52:10.548Z,10.73
2022-10-12T21:54:57.471Z,11.60
2022-10-12T21:57:44.760Z,12.17
2022-10-12T22:00:31.719Z,13.60
2022-10-12T22:03:18.697Z,12.83
2022-10-12T22:06:06.442Z,12.03
2022-10-12T22:08:55.683Z,12.43
2022-10-12T22:11:43.019Z,15.10
2022-10-12T22:14:31.422Z,12.23
2022-10-12T22:17:19.003Z,13.07
2022-10-12T22:20:07.270Z,11.60
2022-10-12T22:22:57.827Z,12.27
2022-10-12T22:25:44.757Z,11.60
2022-10-12T22:28:31.771Z,12.53
2022-10-12T22:31:20.893Z,12.07
2022-10-12T22:34:08.190Z,11.57
2022-10-12T22:36:56.323Z,12.77
2022-10-12T22:39:45.877Z,13.43
2022-10-12T22:42:32.786Z,11.63
2022-10-12T22:45:25.689Z,12.30
2022-10-12T22:48:14.818Z,11.17
2022-10-12T22:51:01.882Z,11.60
2022-10-12T22:53:49.298Z,12.07
2022-10-12T22:56:36.402Z,12.93
2022-10-12T22:59:23.354Z,12.03
2022-10-12T23:02:10.292Z,10.70
2022-10-12T23:04:57.227Z,11.03
2022-10-12T23:07:44.153Z,9.43
2022-10-12T23:10:31.949Z,10.13
2022-10-12T23:13:19.175Z,9.20
2022-10-12T23:16:09.378Z,9.23
2022-10-12T23:19:01.450Z,9.40
2022-10-12T23:21:48.421Z,10.77
2022-10-12T23:24:35.377Z,10.70
2022-10-12T23:27:23.373Z,9.13
2022-10-12T23:30:10.685Z,10.20
2022-10-12T23:32:57.683Z,10.43
2022-10-12T23:35:46.174Z,10.60
2022-10-12T23:38:34.746Z,9.90
2022-10-12T23:41:21.830Z,10.23
2022-10-12T23:44:08.775Z,11.00
2022-10-12T23:46:55.692Z,9.97
2022-10-12T23:49:42.728Z,10.30
2022-10-12T23:52:30.664Z,11.67
2022-10-12T23:55:17.604Z,11.40
2022-10-12T23:58:06.126Z,10.67
